sensor_id;sensor_type;location;lat;lon;timestamp;pressure;altitude;pressure_sealevel;temperature;humidity
56671;BME280;42545;50.054;8.306;2023-04-29T00:00:05;99614.63;;;10.86;100.00
56671;BME280;42545;50.054;8.306;2023-04-29T00:02:32;99607.50;;;10.77;100.00
56671;BME280;42545;50.054;8.306;2023-04-29T00:04:59;99614.56;;;10.82;100.00
56671;BME280;42545;50.054;8.306;2023-04-29T00:07:30;99610.13;;;10.76;100.00
56671;BME280;42545;50.054;8.306;2023-04-29T00:09:58;99614.53;;;10.74;100.00
56671;BME280;42545;50.054;8.306;2023-04-29T00:12:24;99623.34;;;10.76;100.00
56671;BME280;42545;50.054;8.306;2023-04-29T00:14:52;99618.94;;;10.73;100.00
56671;BME280;42545;50.054;8.306;2023-04-29T00:17:19;99618.00;;;10.70;100.00
56671;BME280;42545;50.054;8.306;2023-04-29T00:19:45;99610.94;;;10.67;100.00
56671;BME280;42545;50.054;8.306;2023-04-29T00:22:12;99610.03;;;10.65;100.00
56671;BME280;42545;50.054;8.306;2023-04-29T00:24:40;99605.63;;;10.63;100.00
56671;BME280;42545;50.054;8.306;2023-04-29T00:27:07;99608.22;;;10.60;100.00
56671;BME280;42545;50.054;8.306;2023-04-29T00:29:36;99607.34;;;10.57;100.00
56671;BME280;42545;50.054;8.306;2023-04-29T00:32:02;99610.81;;;10.55;100.00
56671;BME280;42545;50.054;8.306;2023-04-29T00:34:29;99611.69;;;10.54;100.00
56671;BME280;42545;50.054;8.306;2023-04-29T00:36:56;99620.50;;;10.54;100.00
56671;BME280;42545;50.054;8.306;2023-04-29T00:39:23;99612.56;;;10.54;100.00
56671;BME280;42545;50.054;8.306;2023-04-29T00:41:51;99609.09;;;10.55;100.00
56671;BME280;42545;50.054;8.306;2023-04-29T00:44:18;99610.84;;;10.56;100.00
56671;BME280;42545;50.054;8.306;2023-04-29T00:46:45;99619.63;;;10.58;100.00
56671;BME280;42545;50.054;8.306;2023-04-29T00:49:12;99611.75;;;10.60;100.00
56671;BME280;42545;50.054;8.306;2023-04-29T00:51:40;99621.47;;;10.63;100.00
56671;BME280;42545;50.054;8.306;2023-04-29T00:54:08;99617.06;;;10.63;100.00
56671;BME280;42545;50.054;8.306;2023-04-29T00:56:36;99617.91;;;10.62;100.00
56671;BME280;42545;50.054;8.306;2023-04-29T00:59:08;99618.81;;;10.63;100.00
56671;BME280;42545;50.054;8.306;2023-04-29T01:01:35;99625.84;;;10.61;100.00
56671;BME280;42545;50.054;8.306;2023-04-29T01:04:03;99622.28;;;10.58;100.00
56671;BME280;42545;50.054;8.306;2023-04-29T01:06:39;99624.03;;;10.56;100.00
56671;BME280;42545;50.054;8.306;2023-04-29T01:09:22;99616.09;;;10.52;100.00
56671;BME280;42545;50.054;8.306;2023-04-29T01:11:59;99619.56;;;10.49;100.00
56671;BME280;42545;50.054;8.306;2023-04-29T01:14:32;99619.56;;;10.46;100.00
56671;BME280;42545;50.054;8.306;2023-04-29T01:17:05;99616.88;;;10.43;100.00
56671;BME280;42545;50.054;8.306;2023-04-29T01:19:39;99605.38;;;10.38;100.00
56671;BME280;42545;50.054;8.306;2023-04-29T01:22:10;99615.03;;;10.34;100.00
56671;BME280;42545;50.054;8.306;2023-04-29T01:24:40;99614.09;;;10.31;100.00
56671;BME280;42545;50.054;8.306;2023-04-29T01:27:15;99619.34;;;10.28;100.00
56671;BME280;42545;50.054;8.306;2023-04-29T01:29:50;99621.06;;;10.24;100.00
56671;BME280;42545;50.054;8.306;2023-04-29T01:32:26;99621.88;;;10.22;100.00
56671;BME280;42545;50.054;8.306;2023-04-29T01:35:07;99629.75;;;10.17;100.00
56671;BME280;42545;50.054;8.306;2023-04-29T01:37:40;99630.56;;;10.13;100.00
56671;BME280;42545;50.054;8.306;2023-04-29T01:40:14;99626.16;;;10.10;100.00
56671;BME280;42545;50.054;8.306;2023-04-29T01:42:44;99624.38;;;10.08;100.00
56671;BME280;42545;50.054;8.306;2023-04-29T01:45:14;99623.47;;;10.04;100.00
56671;BME280;42545;50.054;8.306;2023-04-29T01:47:42;99632.19;;;10.01;100.00
56671;BME280;42545;50.054;8.306;2023-04-29T01:50:09;99632.19;;;10.00;100.00
56671;BME280;42545;50.054;8.306;2023-04-29T01:52:36;99636.56;;;9.98;100.00
56671;BME280;42545;50.054;8.306;2023-04-29T01:55:03;99629.53;;;9.97;100.00
56671;BME280;42545;50.054;8.306;2023-04-29T01:57:32;99644.44;;;9.96;100.00
56671;BME280;42545;50.054;8.306;2023-04-29T01:59:58;99640.94;;;9.96;100.00
56671;BME280;42545;50.054;8.306;2023-04-29T02:02:26;99640.94;;;9.96;100.00
56671;BME280;42545;50.054;8.306;2023-04-29T02:04:53;99642.72;;;9.97;100.00
56671;BME280;42545;50.054;8.306;2023-04-29T02:07:20;99633.91;;;9.98;100.00
56671;BME280;42545;50.054;8.306;2023-04-29T02:09:46;99641.88;;;10.01;100.00
56671;BME280;42545;50.054;8.306;2023-04-29T02:12:13;99631.38;;;10.06;100.00
56671;BME280;42545;50.054;8.306;2023-04-29T02:14:41;99627.03;;;10.11;100.00
56671;BME280;42545;50.054;8.306;2023-04-29T02:17:08;99630.63;;;10.16;100.00
56671;BME280;42545;50.054;8.306;2023-04-29T02:19:35;99626.31;;;10.24;100.00
56671;BME280;42545;50.054;8.306;2023-04-29T02:22:01;99629.97;;;10.34;100.00
56671;BME280;42545;50.054;8.306;2023-04-29T02:24:28;99631.81;;;10.41;100.00
56671;BME280;42545;50.054;8.306;2023-04-29T02:26:54;99632.75;;;10.48;100.00
56671;BME280;42545;50.054;8.306;2023-04-29T02:29:21;99626.66;;;10.53;100.00
56671;BME280;42545;50.054;8.306;2023-04-29T02:31:49;99628.44;;;10.57;100.00
56671;BME280;42545;50.054;8.306;2023-04-29T02:34:16;99633.75;;;10.62;100.00
56671;BME280;42545;50.054;8.306;2023-04-29T02:36:42;99629.41;;;10.64;100.00
56671;BME280;42545;50.054;8.306;2023-04-29T02:39:09;99640.84;;;10.66;100.00
56671;BME280;42545;50.054;8.306;2023-04-29T02:41:35;99644.41;;;10.70;100.00
56671;BME280;42545;50.054;8.306;2023-04-29T02:44:02;99648.78;;;10.71;100.00
56671;BME280;42545;50.054;8.306;2023-04-29T02:46:29;99645.28;;;10.72;100.00
56671;BME280;42545;50.054;8.306;2023-04-29T02:48:59;99654.09;;;10.74;100.00
56671;BME280;42545;50.054;8.306;2023-04-29T02:51:26;99647.97;;;10.76;100.00
56671;BME280;42545;50.054;8.306;2023-04-29T02:53:53;99650.63;;;10.80;100.00
56671;BME280;42545;50.054;8.306;2023-04-29T02:56:19;99652.41;;;10.82;100.00
56671;BME280;42545;50.054;8.306;2023-04-29T02:58:47;99658.59;;;10.84;100.00
56671;BME280;42545;50.054;8.306;2023-04-29T03:01:14;99656.84;;;10.85;100.00
56671;BME280;42545;50.054;8.306;2023-04-29T03:03:40;99651.56;;;10.85;100.00
56671;BME280;42545;50.054;8.306;2023-04-29T03:06:09;99661.25;;;10.87;100.00
56671;BME280;42545;50.054;8.306;2023-04-29T03:08:36;99645.41;;;10.86;100.00
56671;BME280;42545;50.054;8.306;2023-04-29T03:11:02;99655.97;;;10.87;100.00
56671;BME280;42545;50.054;8.306;2023-04-29T03:13:29;99654.19;;;10.88;100.00
56671;BME280;42545;50.054;8.306;2023-04-29T03:15:55;99663.91;;;10.89;100.00
56671;BME280;42545;50.054;8.306;2023-04-29T03:18:24;99658.59;;;10.87;100.00
56671;BME280;42545;50.054;8.306;2023-04-29T03:20:51;99663.00;;;10.87;100.00
56671;BME280;42545;50.054;8.306;2023-04-29T03:23:19;99656.84;;;10.88;100.00
56671;BME280;42545;50.054;8.306;2023-04-29T03:25:46;99663.00;;;10.87;100.00
56671;BME280;42545;50.054;8.306;2023-04-29T03:28:13;99663.88;;;10.84;100.00
56671;BME280;42545;50.054;8.306;2023-04-29T03:30:40;99663.88;;;10.83;100.00
56671;BME280;42545;50.054;8.306;2023-04-29T03:33:07;99666.50;;;10.83;100.00
56671;BME280;42545;50.054;8.306;2023-04-29T03:35:34;99663.88;;;10.83;100.00
56671;BME280;42545;50.054;8.306;2023-04-29T03:38:00;99667.34;;;10.80;100.00
56671;BME280;42545;50.054;8.306;2023-04-29T03:40:28;99675.28;;;10.82;100.00
56671;BME280;42545;50.054;8.306;2023-04-29T03:42:55;99668.22;;;10.82;100.00
56671;BME280;42545;50.054;8.306;2023-04-29T03:45:22;99673.50;;;10.82;100.00
56671;BME280;42545;50.054;8.306;2023-04-29T03:47:48;99675.28;;;10.82;100.00
56671;BME280;42545;50.054;8.306;2023-04-29T03:50:16;99677.03;;;10.81;100.00
56671;BME280;42545;50.054;8.306;2023-04-29T03:52:42;99674.38;;;10.80;100.00
56671;BME280;42545;50.054;8.306;2023-04-29T03:55:09;99690.22;;;10.80;100.00
56671;BME280;42545;50.054;8.306;2023-04-29T03:57:38;99687.56;;;10.80;100.00
56671;BME280;42545;50.054;8.306;2023-04-29T04:00:05;99687.56;;;10.80;100.00
56671;BME280;42545;50.054;8.306;2023-04-29T04:02:33;99686.66;;;10.74;100.00
56671;BME280;42545;50.054;8.306;2023-04-29T04:05:00;99691.09;;;10.77;100.00
56671;BME280;42545;50.054;8.306;2023-04-29T04:07:26;99695.44;;;10.75;100.00
56671;BME280;42545;50.054;8.306;2023-04-29T04:09:53;99697.19;;;10.74;100.00
56671;BME280;42545;50.054;8.306;2023-04-29T04:12:20;99703.34;;;10.75;100.00
56671;BME280;42545;50.054;8.306;2023-04-29T04:14:48;99702.50;;;10.76;100.00
56671;BME280;42545;50.054;8.306;2023-04-29T04:17:14;99696.34;;;10.75;100.00
56671;BME280;42545;50.054;8.306;2023-04-29T04:19:41;99709.53;;;10.78;100.00
56671;BME280;42545;50.054;8.306;2023-04-29T04:22:07;99705.19;;;10.79;100.00
56671;BME280;42545;50.054;8.306;2023-04-29T04:24:36;99706.91;;;10.78;100.00
56671;BME280;42545;50.054;8.306;2023-04-29T04:27:02;99706.06;;;10.80;100.00
56671;BME280;42545;50.054;8.306;2023-04-29T04:29:29;99707.84;;;10.81;100.00
56671;BME280;42545;50.054;8.306;2023-04-29T04:31:57;99709.53;;;10.78;100.00
56671;BME280;42545;50.054;8.306;2023-04-29T04:34:24;99712.19;;;10.78;100.00
56671;BME280;42545;50.054;8.306;2023-04-29T04:36:51;99716.59;;;10.78;100.00
56671;BME280;42545;50.054;8.306;2023-04-29T04:39:17;99717.47;;;10.80;100.00
56671;BME280;42545;50.054;8.306;2023-04-29T04:41:44;99726.28;;;10.79;100.00
56671;BME280;42545;50.054;8.306;2023-04-29T04:44:11;99733.31;;;10.78;100.00
56671;BME280;42545;50.054;8.306;2023-04-29T04:46:38;99730.66;;;10.78;100.00
56671;BME280;42545;50.054;8.306;2023-04-29T04:49:06;99734.22;;;10.79;100.00
56671;BME280;42545;50.054;8.306;2023-04-29T04:51:33;99743.03;;;10.83;100.00
56671;BME280;42545;50.054;8.306;2023-04-29T04:53:59;99743.94;;;10.85;100.00
56671;BME280;42545;50.054;8.306;2023-04-29T04:56:26;99737.81;;;10.89;100.00
56671;BME280;42545;50.054;8.306;2023-04-29T04:58:52;99737.84;;;10.90;100.00
56671;BME280;42545;50.054;8.306;2023-04-29T05:01:19;99745.75;;;10.90;100.00
56671;BME280;42545;50.054;8.306;2023-04-29T05:03:46;99744.88;;;10.90;100.00
56671;BME280;42545;50.054;8.306;2023-04-29T05:06:14;99744.88;;;10.91;100.00
56671;BME280;42545;50.054;8.306;2023-04-29T05:08:41;99744.88;;;10.93;100.00
56671;BME280;42545;50.054;8.306;2023-04-29T05:11:14;99750.16;;;10.93;100.00
56671;BME280;42545;50.054;8.306;2023-04-29T05:13:43;99755.44;;;10.93;99.32
56671;BME280;42545;50.054;8.306;2023-04-29T05:16:10;99755.44;;;10.93;98.26
56671;BME280;42545;50.054;8.306;2023-04-29T05:18:36;99759.03;;;10.98;98.26
56671;BME280;42545;50.054;8.306;2023-04-29T05:21:03;99759.03;;;10.98;97.65
56671;BME280;42545;50.054;8.306;2023-04-29T05:23:31;99751.06;;;10.95;96.40
56671;BME280;42545;50.054;8.306;2023-04-29T05:25:58;99758.09;;;10.93;95.45
56671;BME280;42545;50.054;8.306;2023-04-29T05:28:24;99755.47;;;10.94;96.15
56671;BME280;42545;50.054;8.306;2023-04-29T05:30:51;99760.75;;;10.96;96.22
56671;BME280;42545;50.054;8.306;2023-04-29T05:33:18;99755.41;;;10.91;95.55
56671;BME280;42545;50.054;8.306;2023-04-29T05:35:45;99766.00;;;10.93;95.06
56671;BME280;42545;50.054;8.306;2023-04-29T05:38:12;99762.50;;;10.94;95.27
56671;BME280;42545;50.054;8.306;2023-04-29T05:40:40;99768.66;;;10.94;94.93
56671;BME280;42545;50.054;8.306;2023-04-29T05:43:07;99774.84;;;10.98;94.69
56671;BME280;42545;50.054;8.306;2023-04-29T05:45:34;99778.41;;;11.00;93.51
56671;BME280;42545;50.054;8.306;2023-04-29T05:48:00;99784.66;;;11.08;93.83
56671;BME280;42545;50.054;8.306;2023-04-29T05:50:27;99793.50;;;11.12;93.25
56671;BME280;42545;50.054;8.306;2023-04-29T05:52:53;99791.78;;;11.19;92.72
56671;BME280;42545;50.054;8.306;2023-04-29T05:55:20;99793.59;;;11.26;91.43
56671;BME280;42545;50.054;8.306;2023-04-29T05:57:49;99801.53;;;11.23;89.96
56671;BME280;42545;50.054;8.306;2023-04-29T06:00:16;99805.06;;;11.25;89.57
56671;BME280;42545;50.054;8.306;2023-04-29T06:02:42;99798.88;;;11.26;89.27
56671;BME280;42545;50.054;8.306;2023-04-29T06:05:10;99809.59;;;11.40;88.88
56671;BME280;42545;50.054;8.306;2023-04-29T06:07:38;99815.00;;;11.55;88.08
56671;BME280;42545;50.054;8.306;2023-04-29T06:10:06;99815.16;;;11.70;88.08
56671;BME280;42545;50.054;8.306;2023-04-29T06:12:33;99815.22;;;11.80;87.79
56671;BME280;42545;50.054;8.306;2023-04-29T06:15:01;99823.09;;;11.75;84.79
56671;BME280;42545;50.054;8.306;2023-04-29T06:17:28;99830.00;;;11.58;84.24
56671;BME280;42545;50.054;8.306;2023-04-29T06:19:55;99834.25;;;11.40;84.93
56671;BME280;42545;50.054;8.306;2023-04-29T06:22:22;99831.47;;;11.28;85.29
56671;BME280;42545;50.054;8.306;2023-04-29T06:24:49;99845.47;;;11.18;85.59
56671;BME280;42545;50.054;8.306;2023-04-29T06:27:16;99854.19;;;11.09;85.99
56671;BME280;42545;50.054;8.306;2023-04-29T06:29:42;99852.28;;;10.99;86.03
56671;BME280;42545;50.054;8.306;2023-04-29T06:32:11;99870.78;;;10.97;86.42
56671;BME280;42545;50.054;8.306;2023-04-29T06:34:38;99868.94;;;10.93;86.21
56671;BME280;42545;50.054;8.306;2023-04-29T06:37:05;99880.44;;;10.96;86.89
56671;BME280;42545;50.054;8.306;2023-04-29T06:39:32;99884.88;;;10.99;86.57
56671;BME280;42545;50.054;8.306;2023-04-29T06:41:58;99880.44;;;10.96;86.09
56671;BME280;42545;50.054;8.306;2023-04-29T06:44:26;99890.16;;;10.99;86.60
56671;BME280;42545;50.054;8.306;2023-04-29T06:46:53;99895.44;;;10.99;87.25
56671;BME280;42545;50.054;8.306;2023-04-29T06:49:21;99901.63;;;11.04;88.01
56671;BME280;42545;50.054;8.306;2023-04-29T06:51:55;99912.22;;;11.06;88.20
56671;BME280;42545;50.054;8.306;2023-04-29T06:54:23;99909.56;;;11.03;87.07
56671;BME280;42545;50.054;8.306;2023-04-29T06:56:51;99917.47;;;11.01;87.95
56671;BME280;42545;50.054;8.306;2023-04-29T06:59:18;99919.19;;;10.98;87.64
56671;BME280;42545;50.054;8.306;2023-04-29T07:01:45;99926.19;;;10.95;88.18
56671;BME280;42545;50.054;8.306;2023-04-29T07:04:11;99922.59;;;10.90;87.81
56671;BME280;42545;50.054;8.306;2023-04-29T07:06:39;99917.31;;;10.89;88.53
56671;BME280;42545;50.054;8.306;2023-04-29T07:09:10;99929.59;;;10.87;88.98
56671;BME280;42545;50.054;8.306;2023-04-29T07:11:38;99919.03;;;10.87;89.28
56671;BME280;42545;50.054;8.306;2023-04-29T07:14:04;99925.19;;;10.87;89.38
56671;BME280;42545;50.054;8.306;2023-04-29T07:16:31;99925.25;;;10.90;89.80
56671;BME280;42545;50.054;8.306;2023-04-29T07:18:58;99923.50;;;10.91;89.01
56671;BME280;42545;50.054;8.306;2023-04-29T07:21:25;99934.03;;;10.89;88.72
56671;BME280;42545;50.054;8.306;2023-04-29T07:23:53;99927.88;;;10.90;89.32
56671;BME280;42545;50.054;8.306;2023-04-29T07:26:20;99934.94;;;10.93;88.85
56671;BME280;42545;50.054;8.306;2023-04-29T07:28:47;99927.94;;;10.95;88.14
56671;BME280;42545;50.054;8.306;2023-04-29T07:31:14;99939.44;;;10.97;88.57
56671;BME280;42545;50.054;8.306;2023-04-29T07:33:41;99940.34;;;11.01;88.68
56671;BME280;42545;50.054;8.306;2023-04-29T07:36:09;99946.53;;;11.03;88.12
56671;BME280;42545;50.054;8.306;2023-04-29T07:38:36;99944.84;;;11.11;88.92
56671;BME280;42545;50.054;8.306;2023-04-29T07:41:05;99951.09;;;11.16;89.44
56671;BME280;42545;50.054;8.306;2023-04-29T07:43:31;99945.84;;;11.19;88.70
56671;BME280;42545;50.054;8.306;2023-04-29T07:46:00;99945.00;;;11.22;88.50
56671;BME280;42545;50.054;8.306;2023-04-29T07:48:27;99952.91;;;11.22;88.25
56671;BME280;42545;50.054;8.306;2023-04-29T07:50:55;99956.44;;;11.22;88.43
56671;BME280;42545;50.054;8.306;2023-04-29T07:53:22;99952.84;;;11.15;88.47
56671;BME280;42545;50.054;8.306;2023-04-29T07:55:49;99970.56;;;11.23;89.06
56671;BME280;42545;50.054;8.306;2023-04-29T07:58:18;99967.88;;;11.21;88.61
56671;BME280;42545;50.054;8.306;2023-04-29T08:00:44;99975.75;;;11.18;88.62
56671;BME280;42545;50.054;8.306;2023-04-29T08:03:11;99976.63;;;11.15;88.30
56671;BME280;42545;50.054;8.306;2023-04-29T08:05:39;99988.91;;;11.12;88.08
56671;BME280;42545;50.054;8.306;2023-04-29T08:08:07;99986.22;;;11.10;88.98
56671;BME280;42545;50.054;8.306;2023-04-29T08:10:37;99982.72;;;11.10;88.76
56671;BME280;42545;50.054;8.306;2023-04-29T08:13:05;99991.50;;;11.10;89.29
56671;BME280;42545;50.054;8.306;2023-04-29T08:15:33;99992.34;;;11.08;88.94
56671;BME280;42545;50.054;8.306;2023-04-29T08:18:00;100002.91;;;11.06;89.47
56671;BME280;42545;50.054;8.306;2023-04-29T08:20:29;99992.22;;;10.99;89.04
56671;BME280;42545;50.054;8.306;2023-04-29T08:22:57;100009.88;;;11.01;88.34
56671;BME280;42545;50.054;8.306;2023-04-29T08:25:24;100009.88;;;11.01;89.41
56671;BME280;42545;50.054;8.306;2023-04-29T08:27:52;100008.09;;;11.00;89.69
56671;BME280;42545;50.054;8.306;2023-04-29T08:30:19;100016.03;;;11.02;90.22
56671;BME280;42545;50.054;8.306;2023-04-29T08:32:47;100019.56;;;11.02;90.23
56671;BME280;42545;50.054;8.306;2023-04-29T08:35:13;100016.03;;;11.02;90.32
56671;BME280;42545;50.054;8.306;2023-04-29T08:37:41;100022.19;;;11.02;90.22
56671;BME280;42545;50.054;8.306;2023-04-29T08:40:09;100018.75;;;11.08;90.72
56671;BME280;42545;50.054;8.306;2023-04-29T08:42:36;100024.94;;;11.08;90.48
56671;BME280;42545;50.054;8.306;2023-04-29T08:45:03;100024.94;;;11.08;90.43
56671;BME280;42545;50.054;8.306;2023-04-29T08:47:31;100033.75;;;11.10;90.67
56671;BME280;42545;50.054;8.306;2023-04-29T08:50:02;100035.53;;;11.11;90.76
56671;BME280;42545;50.054;8.306;2023-04-29T08:52:30;100031.13;;;11.10;90.42
56671;BME280;42545;50.054;8.306;2023-04-29T08:54:58;100031.16;;;11.12;90.88
56671;BME280;42545;50.054;8.306;2023-04-29T08:57:29;100035.53;;;11.11;90.46
56671;BME280;42545;50.054;8.306;2023-04-29T09:00:05;100028.44;;;11.07;90.41
56671;BME280;42545;50.054;8.306;2023-04-29T09:02:38;100030.22;;;11.08;91.09
56671;BME280;42545;50.054;8.306;2023-04-29T09:05:09;100039.94;;;11.11;91.29
56671;BME280;42545;50.054;8.306;2023-04-29T09:07:37;100039.03;;;11.10;90.86
56671;BME280;42545;50.054;8.306;2023-04-29T09:10:06;100038.16;;;11.11;90.80
56671;BME280;42545;50.054;8.306;2023-04-29T09:12:33;100039.91;;;11.09;90.55
56671;BME280;42545;50.054;8.306;2023-04-29T09:15:00;100036.38;;;11.09;90.64
56671;BME280;42545;50.054;8.306;2023-04-29T09:17:41;100047.00;;;11.12;90.31
56671;BME280;42545;50.054;8.306;2023-04-29T09:20:27;100049.66;;;11.15;90.60
56671;BME280;42545;50.054;8.306;2023-04-29T09:22:56;100045.28;;;11.15;90.24
56671;BME280;42545;50.054;8.306;2023-04-29T09:25:26;100057.66;;;11.20;89.91
56671;BME280;42545;50.054;8.306;2023-04-29T09:27:54;100043.47;;;11.13;89.38
56671;BME280;42545;50.054;8.306;2023-04-29T09:30:23;100057.72;;;11.23;88.43
56671;BME280;42545;50.054;8.306;2023-04-29T09:33:05;100061.25;;;11.25;89.22
56671;BME280;42545;50.054;8.306;2023-04-29T09:35:34;100056.91;;;11.28;89.12
56671;BME280;42545;50.054;8.306;2023-04-29T09:38:11;100055.22;;;11.35;89.06
56671;BME280;42545;50.054;8.306;2023-04-29T09:40:41;100065.84;;;11.40;88.59
56671;BME280;42545;50.054;8.306;2023-04-29T09:43:12;100064.19;;;11.46;88.26
56671;BME280;42545;50.054;8.306;2023-04-29T09:45:41;100069.50;;;11.49;87.61
56671;BME280;42545;50.054;8.306;2023-04-29T09:48:11;100074.84;;;11.54;87.08
56671;BME280;42545;50.054;8.306;2023-04-29T09:50:41;100062.50;;;11.54;86.65
56671;BME280;42545;50.054;8.306;2023-04-29T09:53:10;100068.78;;;11.63;87.39
56671;BME280;42545;50.054;8.306;2023-04-29T09:55:57;100069.63;;;11.60;86.53
56671;BME280;42545;50.054;8.306;2023-04-29T09:58:27;100074.09;;;11.66;86.31
56671;BME280;42545;50.054;8.306;2023-04-29T10:00:57;100072.34;;;11.65;85.57
56671;BME280;42545;50.054;8.306;2023-04-29T10:03:26;100080.25;;;11.63;85.42
56671;BME280;42545;50.054;8.306;2023-04-29T10:05:56;100074.03;;;11.60;85.01
56671;BME280;42545;50.054;8.306;2023-04-29T10:08:24;100083.69;;;11.58;85.07
56671;BME280;42545;50.054;8.306;2023-04-29T10:10:52;100088.94;;;11.54;84.92
56671;BME280;42545;50.054;8.306;2023-04-29T10:13:22;100084.53;;;11.55;85.01
56671;BME280;42545;50.054;8.306;2023-04-29T10:18:34;100085.41;;;11.52;84.83
56671;BME280;42545;50.054;8.306;2023-04-29T10:21:06;100083.59;;;11.51;84.60
56671;BME280;42545;50.054;8.306;2023-04-29T10:23:33;100089.81;;;11.52;84.62
56671;BME280;42545;50.054;8.306;2023-04-29T10:26:01;100091.53;;;11.51;84.84
56671;BME280;42545;50.054;8.306;2023-04-29T10:28:30;100090.72;;;11.54;84.58
56671;BME280;42545;50.054;8.306;2023-04-29T10:31:00;100090.72;;;11.57;84.27
56671;BME280;42545;50.054;8.306;2023-04-29T10:33:30;100082.78;;;11.57;83.22
56671;BME280;42545;50.054;8.306;2023-04-29T10:35:58;100092.53;;;11.60;83.34
56671;BME280;42545;50.054;8.306;2023-04-29T10:38:29;100082.88;;;11.62;83.01
56671;BME280;42545;50.054;8.306;2023-04-29T10:40:57;100083.81;;;11.67;82.49
56671;BME280;42545;50.054;8.306;2023-04-29T10:43:25;100085.63;;;11.71;82.43
56671;BME280;42545;50.054;8.306;2023-04-29T10:46:16;100090.97;;;11.76;82.04
56671;BME280;42545;50.054;8.306;2023-04-29T10:48:43;100102.53;;;11.84;81.94
56671;BME280;42545;50.054;8.306;2023-04-29T10:51:10;100092.97;;;11.92;81.98
56671;BME280;42545;50.054;8.306;2023-04-29T10:54:00;100087.75;;;12.00;81.45
56671;BME280;42545;50.054;8.306;2023-04-29T10:56:38;100092.25;;;12.10;81.37
56671;BME280;42545;50.054;8.306;2023-04-29T10:59:05;100088.81;;;12.16;80.40
56671;BME280;42545;50.054;8.306;2023-04-29T11:01:45;100069.41;;;12.15;80.89
56671;BME280;42545;50.054;8.306;2023-04-29T11:04:13;100093.28;;;12.24;80.06
56671;BME280;42545;50.054;8.306;2023-04-29T11:06:43;100092.41;;;12.22;79.18
56671;BME280;42545;50.054;8.306;2023-04-29T11:09:14;100089.72;;;12.21;79.64
56671;BME280;42545;50.054;8.306;2023-04-29T11:11:54;100087.97;;;12.23;80.34
56671;BME280;42545;50.054;8.306;2023-04-29T11:14:23;100082.69;;;12.23;79.86
56671;BME280;42545;50.054;8.306;2023-04-29T11:16:52;100082.72;;;12.24;80.16
56671;BME280;42545;50.054;8.306;2023-04-29T11:19:19;100078.34;;;12.29;80.62
56671;BME280;42545;50.054;8.306;2023-04-29T11:21:46;100079.34;;;12.38;79.66
56671;BME280;42545;50.054;8.306;2023-04-29T11:24:15;100082.03;;;12.45;79.65
56671;BME280;42545;50.054;8.306;2023-04-29T11:26:43;100083.03;;;12.57;78.96
56671;BME280;42545;50.054;8.306;2023-04-29T11:29:11;100085.78;;;12.71;78.21
56671;BME280;42545;50.054;8.306;2023-04-29T11:31:38;100079.75;;;12.90;76.78
56671;BME280;42545;50.054;8.306;2023-04-29T11:34:05;100082.50;;;13.04;77.57
56671;BME280;42545;50.054;8.306;2023-04-29T11:36:33;100072.03;;;13.24;77.48
56671;BME280;42545;50.054;8.306;2023-04-29T11:39:01;100074.81;;;13.41;77.04
56671;BME280;42545;50.054;8.306;2023-04-29T11:41:31;100074.03;;;13.67;76.36
56671;BME280;42545;50.054;8.306;2023-04-29T11:43:59;100070.56;;;13.86;76.21
56671;BME280;42545;50.054;8.306;2023-04-29T11:46:29;100076.81;;;14.02;73.71
56671;BME280;42545;50.054;8.306;2023-04-29T11:48:57;100070.59;;;14.01;71.36
56671;BME280;42545;50.054;8.306;2023-04-29T11:51:24;100074.16;;;14.14;72.64
56671;BME280;42545;50.054;8.306;2023-04-29T11:53:52;100074.22;;;14.28;71.00
56671;BME280;42545;50.054;8.306;2023-04-29T11:56:20;100058.28;;;14.43;70.01
56671;BME280;42545;50.054;8.306;2023-04-29T11:58:54;100063.66;;;14.57;70.97
56671;BME280;42545;50.054;8.306;2023-04-29T12:01:24;100068.06;;;14.69;70.49
56671;BME280;42545;50.054;8.306;2023-04-29T12:03:56;100069.84;;;14.59;67.12
56671;BME280;42545;50.054;8.306;2023-04-29T12:06:26;100084.88;;;14.64;68.67
56671;BME280;42545;50.054;8.306;2023-04-29T12:08:53;100069.84;;;14.72;67.97
56671;BME280;42545;50.054;8.306;2023-04-29T12:11:21;100073.38;;;14.82;68.22
56671;BME280;42545;50.054;8.306;2023-04-29T12:13:49;100062.75;;;14.88;68.20
56671;BME280;42545;50.054;8.306;2023-04-29T12:16:18;100072.50;;;14.89;67.31
56671;BME280;42545;50.054;8.306;2023-04-29T12:18:45;100062.75;;;14.86;66.76
56671;BME280;42545;50.054;8.306;2023-04-29T12:21:12;100068.94;;;14.85;66.96
56671;BME280;42545;50.054;8.306;2023-04-29T12:23:40;100060.97;;;14.87;67.52
56671;BME280;42545;50.054;8.306;2023-04-29T12:26:07;100067.16;;;14.86;67.08
56671;BME280;42545;50.054;8.306;2023-04-29T12:28:35;100066.31;;;14.77;66.71
56671;BME280;42545;50.054;8.306;2023-04-29T12:31:02;100073.41;;;14.68;68.51
56671;BME280;42545;50.054;8.306;2023-04-29T12:33:30;100067.16;;;14.53;67.92
56671;BME280;42545;50.054;8.306;2023-04-29T12:35:57;100075.09;;;14.33;67.59
56671;BME280;42545;50.054;8.306;2023-04-29T12:38:28;100080.38;;;14.19;68.32
56671;BME280;42545;50.054;8.306;2023-04-29T12:41:36;100086.56;;;14.14;69.54
56671;BME280;42545;50.054;8.306;2023-04-29T12:43:49;100083.03;;;14.12;70.35
56671;BME280;42545;50.054;8.306;2023-04-29T12:46:15;100086.59;;;14.17;71.04
56671;BME280;42545;50.054;8.306;2023-04-29T12:48:45;100076.84;;;14.20;71.24
56671;BME280;42545;50.054;8.306;2023-04-29T12:51:12;100079.50;;;14.25;70.72
56671;BME280;42545;50.054;8.306;2023-04-29T12:53:39;100075.97;;;14.25;71.05
56671;BME280;42545;50.054;8.306;2023-04-29T12:56:06;100091.00;;;14.29;71.70
56671;BME280;42545;50.054;8.306;2023-04-29T12:58:33;100084.84;;;14.31;70.50
56671;BME280;42545;50.054;8.306;2023-04-29T13:01:00;100091.03;;;14.35;70.40